Time;durP1;ratioP1;P1;durP2;ratioP2;P2;SDS_P1;SDS_P2;PMS_P1;PMS_P2;Temp;Humidity;BMP_temperature;BMP_pressure;BME280_temperature;BME280_humidity;BME280_pressure;Samples;Min_cycle;Max_cycle;Signal;HPM_P1;HPM_P2
2023/09/19 00:01:45;;;;;;;4.65;1.20;;;;;;;;;;5025795;28;20816;-57
2023/09/19 00:04:12;;;;;;;5.43;1.40;;;;;;;;;;5023602;28;20398;-57
2023/09/19 00:06:38;;;;;;;5.13;1.60;;;;;;;;;;5017792;28;20415;-57
2023/09/19 00:09:03;;;;;;;5.63;1.48;;;;;;;;;;5018131;28;20810;-57
2023/09/19 00:11:29;;;;;;;5.30;1.38;;;;;;;;;;5020019;28;20496;-57
2023/09/19 00:13:54;;;;;;;5.00;1.40;;;;;;;;;;5023147;28;20845;-56
2023/09/19 00:16:19;;;;;;;3.83;1.30;;;;;;;;;;5025750;28;20413;-57
2023/09/19 00:18:45;;;;;;;4.73;1.40;;;;;;;;;;5024220;28;20483;-57
2023/09/19 00:21:10;;;;;;;5.57;1.48;;;;;;;;;;5023400;28;20449;-56
2023/09/19 00:23:36;;;;;;;5.53;1.63;;;;;;;;;;5022925;28;20406;-57
2023/09/19 00:26:01;;;;;;;4.93;1.53;;;;;;;;;;5020880;28;20395;-57
2023/09/19 00:28:27;;;;;;;6.33;1.50;;;;;;;;;;5018892;28;20401;-56
2023/09/19 00:30:54;;;;;;;4.47;1.45;;;;;;;;;;5020155;28;20501;-57
2023/09/19 00:33:19;;;;;;;5.28;1.45;;;;;;;;;;5014339;28;20451;-57
2023/09/19 00:35:48;;;;;;;7.37;1.70;;;;;;;;;;5023937;28;20411;-57
2023/09/19 00:38:15;;;;;;;6.65;2.20;;;;;;;;;;5028316;28;20799;-57
2023/09/19 00:40:43;;;;;;;9.60;2.20;;;;;;;;;;5023651;28;20417;-56
2023/09/19 00:43:09;;;;;;;9.98;2.20;;;;;;;;;;5024100;28;20403;-57
2023/09/19 00:45:35;;;;;;;9.20;2.10;;;;;;;;;;5026833;28;20403;-57
2023/09/19 00:48:03;;;;;;;9.32;1.92;;;;;;;;;;5022024;28;20460;-58
2023/09/19 00:50:28;;;;;;;10.73;2.27;;;;;;;;;;5020483;28;20391;-58
2023/09/19 00:53:00;;;;;;;8.87;1.90;;;;;;;;;;5018090;28;20450;-57
2023/09/19 00:55:25;;;;;;;10.55;2.60;;;;;;;;;;5015791;28;20420;-57
2023/09/19 00:57:50;;;;;;;9.63;2.40;;;;;;;;;;5020527;28;20403;-57
2023/09/19 01:00:16;;;;;;;8.20;2.10;;;;;;;;;;5021647;28;20407;-57
2023/09/19 01:02:42;;;;;;;10.70;2.03;;;;;;;;;;5025039;28;20410;-57
2023/09/19 01:05:07;;;;;;;9.02;1.90;;;;;;;;;;5023412;28;20414;-57
2023/09/19 01:07:34;;;;;;;7.67;1.90;;;;;;;;;;5024901;28;20748;-57
2023/09/19 01:10:00;;;;;;;9.10;1.95;;;;;;;;;;5030568;28;21864;-57
2023/09/19 01:12:31;;;;;;;7.07;1.70;;;;;;;;;;5031613;28;20406;-57
2023/09/19 01:15:00;;;;;;;8.50;2.00;;;;;;;;;;5019370;28;20990;-57
2023/09/19 01:17:30;;;;;;;7.03;1.80;;;;;;;;;;5020225;28;20419;-57
2023/09/19 01:19:56;;;;;;;8.18;2.10;;;;;;;;;;5024688;28;20509;-57
2023/09/19 01:22:26;;;;;;;8.85;2.10;;;;;;;;;;5026690;28;21311;-57
2023/09/19 01:24:57;;;;;;;8.85;2.00;;;;;;;;;;5027753;28;20461;-57
2023/09/19 01:27:26;;;;;;;8.55;1.83;;;;;;;;;;5028649;28;20407;-57
2023/09/19 01:29:51;;;;;;;9.07;2.35;;;;;;;;;;5032931;28;20452;-57
2023/09/19 01:32:19;;;;;;;8.83;2.30;;;;;;;;;;5024369;28;20414;-57
2023/09/19 01:34:48;;;;;;;10.75;2.28;;;;;;;;;;5026622;28;20453;-57
2023/09/19 01:37:18;;;;;;;7.80;2.10;;;;;;;;;;5022840;28;20402;-57
2023/09/19 01:39:43;;;;;;;9.88;2.28;;;;;;;;;;5018884;28;21000;-57
2023/09/19 01:42:19;;;;;;;8.17;2.23;;;;;;;;;;5019481;28;20391;-57
2023/09/19 01:44:47;;;;;;;11.10;2.67;;;;;;;;;;5027225;28;20465;-57
2023/09/19 01:47:19;;;;;;;10.30;2.30;;;;;;;;;;5027755;28;20417;-57
2023/09/19 01:49:48;;;;;;;10.77;2.70;;;;;;;;;;5025920;28;21158;-57
2023/09/19 01:52:13;;;;;;;11.32;2.72;;;;;;;;;;5024001;28;20404;-57
2023/09/19 01:54:47;;;;;;;13.47;2.87;;;;;;;;;;5029132;28;20490;-57
2023/09/19 01:57:19;;;;;;;15.70;3.15;;;;;;;;;;5023984;28;20414;-57
2023/09/19 01:59:54;;;;;;;10.27;3.00;;;;;;;;;;5018532;28;20497;-57
2023/09/19 02:02:22;;;;;;;12.75;2.85;;;;;;;;;;5016728;28;21371;-57
2023/09/19 02:04:48;;;;;;;12.70;2.38;;;;;;;;;;5028111;28;20394;-57
2023/09/19 02:07:16;;;;;;;10.77;2.42;;;;;;;;;;5025048;28;20413;-57
2023/09/19 02:09:42;;;;;;;12.20;3.20;;;;;;;;;;5026489;28;20407;-57
2023/09/19 02:12:08;;;;;;;13.93;2.97;;;;;;;;;;5026688;28;20772;-57
2023/09/19 02:14:34;;;;;;;11.40;2.63;;;;;;;;;;5025728;28;20648;-57
2023/09/19 02:16:59;;;;;;;12.40;2.60;;;;;;;;;;5030113;28;20413;-57
2023/09/19 02:19:24;;;;;;;10.70;3.00;;;;;;;;;;5025457;28;20448;-56
2023/09/19 02:21:50;;;;;;;11.63;2.63;;;;;;;;;;5020736;28;20542;-56
2023/09/19 02:24:15;;;;;;;10.67;2.70;;;;;;;;;;5017782;28;20440;-57
2023/09/19 02:26:41;;;;;;;10.93;2.38;;;;;;;;;;5018158;28;20429;-57
2023/09/19 02:29:06;;;;;;;10.37;2.73;;;;;;;;;;5027911;28;20413;-57
2023/09/19 02:31:31;;;;;;;9.47;2.43;;;;;;;;;;5025261;28;20522;-57
2023/09/19 02:33:56;;;;;;;9.17;2.17;;;;;;;;;;5024132;28;20886;-57
2023/09/19 02:36:23;;;;;;;9.63;2.40;;;;;;;;;;5026848;28;20401;-57
2023/09/19 02:38:48;;;;;;;10.27;2.40;;;;;;;;;;5026333;28;20451;-57
2023/09/19 02:41:13;;;;;;;13.25;2.70;;;;;;;;;;5024517;28;20411;-57
2023/09/19 02:43:39;;;;;;;12.03;2.50;;;;;;;;;;5023481;28;20442;-57
2023/09/19 02:46:04;;;;;;;9.27;2.20;;;;;;;;;;5021287;28;20401;-57
2023/09/19 02:48:31;;;;;;;11.80;3.00;;;;;;;;;;5017774;28;20398;-57
2023/09/19 02:50:57;;;;;;;10.55;2.38;;;;;;;;;;5022467;28;20414;-57
2023/09/19 02:53:23;;;;;;;11.60;2.53;;;;;;;;;;5028270;28;20400;-57
2023/09/19 02:55:49;;;;;;;10.13;2.20;;;;;;;;;;5024096;28;20410;-57
2023/09/19 02:58:14;;;;;;;12.90;2.87;;;;;;;;;;5024502;28;20642;-57
2023/09/19 03:00:41;;;;;;;11.47;2.57;;;;;;;;;;5026880;28;20419;-57
2023/09/19 03:03:08;;;;;;;13.05;2.83;;;;;;;;;;5029530;28;20413;-57
2023/09/19 03:05:33;;;;;;;12.00;2.78;;;;;;;;;;5024474;28;20397;-57
2023/09/19 03:08:00;;;;;;;11.93;2.37;;;;;;;;;;5045603;28;20815;-57
2023/09/19 03:10:25;;;;;;;10.17;2.27;;;;;;;;;;5044102;28;20394;-57
2023/09/19 03:12:51;;;;;;;11.43;2.72;;;;;;;;;;5048058;28;20467;-57
2023/09/19 03:15:17;;;;;;;9.82;2.35;;;;;;;;;;5046862;28;20479;-57
2023/09/19 03:17:43;;;;;;;13.65;2.90;;;;;;;;;;5040993;28;20398;-56
2023/09/19 03:20:09;;;;;;;11.20;2.20;;;;;;;;;;5016791;28;20446;-57
2023/09/19 03:22:35;;;;;;;14.20;3.17;;;;;;;;;;5017139;28;20430;-56
2023/09/19 03:25:00;;;;;;;13.27;2.80;;;;;;;;;;5023744;28;20399;-57
2023/09/19 03:27:26;;;;;;;10.40;2.23;;;;;;;;;;5026745;28;20432;-57
2023/09/19 03:29:52;;;;;;;12.60;2.40;;;;;;;;;;5024732;28;20405;-56
2023/09/19 03:32:17;;;;;;;9.77;2.10;;;;;;;;;;5024349;28;20403;-57
2023/09/19 03:34:43;;;;;;;13.13;2.40;;;;;;;;;;5028005;28;20421;-57
2023/09/19 03:37:09;;;;;;;12.73;2.70;;;;;;;;;;5023563;28;20419;-57
2023/09/19 03:39:34;;;;;;;12.05;2.60;;;;;;;;;;5023165;28;20405;-57
2023/09/19 03:41:59;;;;;;;12.47;2.70;;;;;;;;;;5018978;28;20472;-56
2023/09/19 03:44:24;;;;;;;12.40;2.50;;;;;;;;;;5018815;28;20392;-57
2023/09/19 03:46:50;;;;;;;11.47;2.60;;;;;;;;;;5018881;28;20401;-57
2023/09/19 03:49:15;;;;;;;9.20;2.17;;;;;;;;;;5025503;28;20407;-57
2023/09/19 03:51:41;;;;;;;10.37;2.13;;;;;;;;;;5026235;28;21042;-57
2023/09/19 03:54:07;;;;;;;8.95;2.20;;;;;;;;;;5024033;28;20405;-57
2023/09/19 03:56:32;;;;;;;14.30;2.93;;;;;;;;;;5025178;28;20406;-57
2023/09/19 03:58:57;;;;;;;12.70;2.20;;;;;;;;;;5027091;28;20417;-57
2023/09/19 04:01:23;;;;;;;10.98;2.30;;;;;;;;;;5024204;28;20392;-57
2023/09/19 04:03:48;;;;;;;8.75;1.95;;;;;;;;;;5018040;28;20402;-57
2023/09/19 04:06:14;;;;;;;8.87;2.13;;;;;;;;;;5016935;28;20465;-57
2023/09/19 04:08:39;;;;;;;12.80;2.70;;;;;;;;;;5018372;28;20412;-57
2023/09/19 04:11:04;;;;;;;11.13;2.10;;;;;;;;;;5022808;28;20475;-57
2023/09/19 04:13:30;;;;;;;9.25;2.30;;;;;;;;;;5025331;28;21298;-57
2023/09/19 04:15:55;;;;;;;12.10;2.40;;;;;;;;;;5025235;28;20808;-57
2023/09/19 04:18:22;;;;;;;10.43;2.10;;;;;;;;;;5023322;28;20486;-57
2023/09/19 04:20:48;;;;;;;10.98;2.28;;;;;;;;;;5023655;28;20403;-57
2023/09/19 04:23:13;;;;;;;9.75;2.25;;;;;;;;;;5026848;28;20494;-56
2023/09/19 04:25:40;;;;;;;9.50;2.60;;;;;;;;;;5021001;28;20403;-56
2023/09/19 04:28:06;;;;;;;9.90;2.30;;;;;;;;;;5015700;28;20446;-57
2023/09/19 04:30:32;;;;;;;9.90;2.40;;;;;;;;;;5018181;28;20407;-57
2023/09/19 04:32:57;;;;;;;9.80;2.23;;;;;;;;;;5021166;28;20409;-57
2023/09/19 04:35:22;;;;;;;11.03;2.27;;;;;;;;;;5024048;28;20501;-56
2023/09/19 04:37:48;;;;;;;12.87;2.50;;;;;;;;;;5023393;28;20905;-57
2023/09/19 04:40:14;;;;;;;10.60;2.50;;;;;;;;;;5025079;28;20476;-57
2023/09/19 04:42:40;;;;;;;11.18;2.42;;;;;;;;;;5025840;28;20399;-57
2023/09/19 04:45:05;;;;;;;11.10;2.20;;;;;;;;;;5028034;28;20422;-57
2023/09/19 04:47:31;;;;;;;12.87;2.10;;;;;;;;;;5025313;28;20446;-57
2023/09/19 04:49:58;;;;;;;12.07;2.28;;;;;;;;;;5016766;28;20395;-57
2023/09/19 04:52:24;;;;;;;12.27;2.13;;;;;;;;;;5022609;28;20398;-57
2023/09/19 04:54:49;;;;;;;10.33;2.20;;;;;;;;;;5019588;28;20409;-57
2023/09/19 04:57:15;;;;;;;13.87;2.60;;;;;;;;;;5027113;28;20419;-56
2023/09/19 04:59:41;;;;;;;12.70;2.80;;;;;;;;;;5031150;28;20421;-56
2023/09/19 05:02:07;;;;;;;11.20;1.80;;;;;;;;;;5026615;28;20920;-57
2023/09/19 05:04:33;;;;;;;8.30;2.08;;;;;;;;;;5028541;28;20977;-57
2023/09/19 05:06:58;;;;;;;10.03;2.40;;;;;;;;;;5028577;28;20417;-57
2023/09/19 05:09:24;;;;;;;10.93;2.30;;;;;;;;;;5027954;28;20731;-57
2023/09/19 05:11:51;;;;;;;13.17;2.43;;;;;;;;;;5020231;28;20416;-57
2023/09/19 05:14:16;;;;;;;11.80;2.13;;;;;;;;;;5020573;28;21090;-57
2023/09/19 05:16:41;;;;;;;10.47;2.10;;;;;;;;;;5019918;28;20653;-57
2023/09/19 05:19:07;;;;;;;11.47;2.70;;;;;;;;;;5025998;28;20408;-57
2023/09/19 05:21:33;;;;;;;9.75;2.00;;;;;;;;;;5027505;28;20423;-57
2023/09/19 05:23:58;;;;;;;11.48;2.47;;;;;;;;;;5027365;28;20836;-57
2023/09/19 05:26:23;;;;;;;10.27;2.08;;;;;;;;;;5026116;28;20497;-57
2023/09/19 05:28:49;;;;;;;10.27;2.30;;;;;;;;;;5026388;28;20829;-57
2023/09/19 05:31:15;;;;;;;12.97;2.47;;;;;;;;;;5027535;28;20468;-57
2023/09/19 05:33:40;;;;;;;13.07;2.47;;;;;;;;;;5023089;28;20399;-58
2023/09/19 05:36:05;;;;;;;10.73;2.20;;;;;;;;;;5017405;28;20411;-57
2023/09/19 05:38:32;;;;;;;10.43;2.03;;;;;;;;;;5020074;28;20837;-57
2023/09/19 05:40:57;;;;;;;8.90;2.10;;;;;;;;;;5028650;28;21938;-57
2023/09/19 05:43:23;;;;;;;11.02;2.40;;;;;;;;;;5023856;28;20403;-58
2023/09/19 05:45:48;;;;;;;10.27;2.43;;;;;;;;;;5022259;28;20501;-58
2023/09/19 05:48:15;;;;;;;9.27;2.07;;;;;;;;;;5026690;28;20429;-58
2023/09/19 05:50:40;;;;;;;10.77;2.20;;;;;;;;;;5025480;28;20452;-58
2023/09/19 05:53:06;;;;;;;12.50;2.45;;;;;;;;;;5027808;28;20407;-58
2023/09/19 05:55:31;;;;;;;10.17;2.50;;;;;;;;;;5025224;28;20449;-57
2023/09/19 05:57:57;;;;;;;11.40;2.73;;;;;;;;;;5012619;28;20410;-57
2023/09/19 06:00:22;;;;;;;11.47;2.27;;;;;;;;;;5018446;28;20805;-58
2023/09/19 06:02:50;;;;;;;12.55;2.30;;;;;;;;;;5023058;28;20401;-57
2023/09/19 06:05:15;;;;;;;9.13;2.10;;;;;;;;;;5045055;28;20405;-57
2023/09/19 06:07:41;;;;;;;9.83;2.30;;;;;;;;;;5048069;28;20460;-57
2023/09/19 06:10:08;;;;;;;10.70;2.40;;;;;;;;;;5045840;28;20402;-57
2023/09/19 06:12:35;;;;;;;9.70;2.17;;;;;;;;;;5044965;28;21031;-57
2023/09/19 06:15:00;;;;;;;11.52;2.53;;;;;;;;;;5051074;28;20401;-57
2023/09/19 06:17:28;;;;;;;13.33;2.10;;;;;;;;;;5047734;28;20714;-57
2023/09/19 06:19:53;;;;;;;11.40;1.92;;;;;;;;;;5046107;28;20409;-57
2023/09/19 06:22:18;;;;;;;10.67;2.17;;;;;;;;;;5047708;28;20475;-57
2023/09/19 06:24:44;;;;;;;11.07;2.37;;;;;;;;;;5048802;28;20427;-57
2023/09/19 06:27:09;;;;;;;11.47;2.60;;;;;;;;;;5044516;28;20765;-57
2023/09/19 06:29:34;;;;;;;10.13;2.40;;;;;;;;;;5047596;28;20402;-57
2023/09/19 06:32:00;;;;;;;10.23;2.58;;;;;;;;;;5047071;28;20394;-58
2023/09/19 06:34:26;;;;;;;11.40;2.30;;;;;;;;;;5046031;28;20780;-58
2023/09/19 06:36:51;;;;;;;9.47;2.20;;;;;;;;;;5047323;28;21031;-57
2023/09/19 06:39:17;;;;;;;10.43;2.15;;;;;;;;;;5046928;28;20437;-57
2023/09/19 06:41:42;;;;;;;9.60;2.40;;;;;;;;;;5046911;28;20769;-57
2023/09/19 06:44:07;;;;;;;10.27;2.10;;;;;;;;;;5044620;28;20766;-57
2023/09/19 06:46:34;;;;;;;10.37;2.50;;;;;;;;;;5047155;28;20417;-57
2023/09/19 06:49:00;;;;;;;11.32;2.30;;;;;;;;;;5047500;28;20396;-58
2023/09/19 06:51:25;;;;;;;9.50;2.15;;;;;;;;;;5045166;28;20398;-57
2023/09/19 06:53:54;;;;;;;9.87;2.70;;;;;;;;;;5047136;28;20908;-57
2023/09/19 06:56:19;;;;;;;9.77;2.28;;;;;;;;;;5046554;28;20405;-57
2023/09/19 06:58:45;;;;;;;9.90;2.43;;;;;;;;;;5046563;28;20417;-58
2023/09/19 07:01:10;;;;;;;12.83;2.50;;;;;;;;;;5045290;28;20429;-57
2023/09/19 07:03:36;;;;;;;13.13;2.40;;;;;;;;;;5047485;28;20448;-57
2023/09/19 07:06:04;;;;;;;10.30;2.23;;;;;;;;;;5046315;28;20397;-58
2023/09/19 07:08:30;;;;;;;9.43;2.40;;;;;;;;;;5044550;28;20389;-57
2023/09/19 07:10:56;;;;;;;10.73;2.50;;;;;;;;;;5047946;28;20406;-57
2023/09/19 07:13:21;;;;;;;11.23;2.40;;;;;;;;;;5047074;28;20457;-57
2023/09/19 07:15:46;;;;;;;14.60;2.97;;;;;;;;;;5044531;28;21216;-57
2023/09/19 07:18:12;;;;;;;11.97;2.50;;;;;;;;;;5046379;28;20931;-58
2023/09/19 07:20:38;;;;;;;12.07;2.58;;;;;;;;;;5047650;28;20488;-58
2023/09/19 07:23:03;;;;;;;12.02;2.20;;;;;;;;;;5045729;28;20880;-57
2023/09/19 07:25:29;;;;;;;12.40;2.47;;;;;;;;;;5046109;28;20401;-57
2023/09/19 07:27:56;;;;;;;9.30;2.63;;;;;;;;;;5047575;28;20737;-57
2023/09/19 07:30:21;;;;;;;14.18;2.80;;;;;;;;;;5045980;28;20401;-58
2023/09/19 07:32:47;;;;;;;10.13;2.10;;;;;;;;;;5044683;28;20405;-58
2023/09/19 07:35:12;;;;;;;10.77;2.67;;;;;;;;;;5046501;28;20405;-57
2023/09/19 07:37:37;;;;;;;11.82;2.80;;;;;;;;;;5047283;28;20460;-57
2023/09/19 07:40:06;;;;;;;11.73;2.23;;;;;;;;;;5045680;28;20429;-57
2023/09/19 07:42:32;;;;;;;10.48;2.28;;;;;;;;;;5045712;28;20421;-57
2023/09/19 07:44:59;;;;;;;10.83;2.50;;;;;;;;;;5046655;28;20484;-57
2023/09/19 07:47:24;;;;;;;12.70;2.45;;;;;;;;;;5046301;28;20429;-57
2023/09/19 07:49:50;;;;;;;9.37;2.50;;;;;;;;;;5044548;28;20444;-57
2023/09/19 07:52:15;;;;;;;10.07;2.13;;;;;;;;;;5046037;28;20512;-57
2023/09/19 07:54:44;;;;;;;8.90;2.35;;;;;;;;;;5047302;28;20772;-58
2023/09/19 07:57:09;;;;;;;11.82;2.45;;;;;;;;;;5044076;28;20408;-58
2023/09/19 07:59:34;;;;;;;11.65;2.60;;;;;;;;;;5046071;28;20433;-57
2023/09/19 08:02:00;;;;;;;10.40;2.30;;;;;;;;;;5046823;28;20409;-57
2023/09/19 08:04:26;;;;;;;11.87;2.40;;;;;;;;;;5046479;28;20405;-57
2023/09/19 08:06:52;;;;;;;12.02;2.47;;;;;;;;;;5050214;28;20417;-58
2023/09/19 08:09:20;;;;;;;10.27;2.30;;;;;;;;;;5043544;28;20401;-57
2023/09/19 08:11:46;;;;;;;11.30;2.22;;;;;;;;;;5046401;28;20401;-57
2023/09/19 08:14:14;;;;;;;9.80;2.43;;;;;;;;;;5045649;28;20401;-57
2023/09/19 08:16:39;;;;;;;9.63;2.63;;;;;;;;;;5047238;28;20760;-57
2023/09/19 08:19:05;;;;;;;9.07;2.30;;;;;;;;;;5049137;28;20471;-58
2023/09/19 08:21:31;;;;;;;11.10;2.33;;;;;;;;;;5050992;28;20419;-57
2023/09/19 08:23:57;;;;;;;10.48;2.40;;;;;;;;;;5050386;28;20749;-57
2023/09/19 08:26:22;;;;;;;10.83;2.50;;;;;;;;;;5047898;28;20413;-57
2023/09/19 08:28:47;;;;;;;11.23;2.70;;;;;;;;;;5051107;28;20397;-57
2023/09/19 08:31:13;;;;;;;13.87;2.83;;;;;;;;;;5050376;28;20401;-57
2023/09/19 08:33:40;;;;;;;12.37;2.50;;;;;;;;;;5047405;28;20907;-58
2023/09/19 08:36:05;;;;;;;10.38;2.60;;;;;;;;;;5042988;28;20401;-57
2023/09/19 08:38:33;;;;;;;9.77;2.47;;;;;;;;;;5053469;28;20488;-58
2023/09/19 08:40:59;;;;;;;12.07;2.80;;;;;;;;;;5049641;28;20428;-57
2023/09/19 08:43:24;;;;;;;11.88;2.28;;;;;;;;;;5050463;28;20393;-58
2023/09/19 08:45:50;;;;;;;13.47;2.80;;;;;;;;;;5048557;28;20906;-57
2023/09/19 08:48:21;;;;;;;11.67;2.60;;;;;;;;;;5048816;28;20409;-57
2023/09/19 08:50:48;;;;;;;9.98;2.45;;;;;;;;;;5050496;28;20405;-58
2023/09/19 08:53:27;;;;;;;11.93;2.42;;;;;;;;;;5048953;28;20459;-57
2023/09/19 08:55:56;;;;;;;13.63;2.97;;;;;;;;;;5046817;28;20406;-58
2023/09/19 08:58:22;;;;;;;11.60;2.90;;;;;;;;;;5049857;28;20806;-58
2023/09/19 09:00:49;;;;;;;12.73;2.92;;;;;;;;;;5049593;28;20787;-57
2023/09/19 09:03:14;;;;;;;12.85;2.65;;;;;;;;;;5048481;28;20445;-57
2023/09/19 09:05:41;;;;;;;11.77;3.00;;;;;;;;;;5047652;28;20436;-57
2023/09/19 09:08:07;;;;;;;12.07;2.47;;;;;;;;;;5047717;28;20459;-58
2023/09/19 09:10:32;;;;;;;13.27;2.72;;;;;;;;;;5050140;28;20397;-58
2023/09/19 09:12:58;;;;;;;12.53;2.83;;;;;;;;;;5047759;28;20514;-58
2023/09/19 09:15:23;;;;;;;10.50;2.77;;;;;;;;;;5048881;28;20432;-58
2023/09/19 09:17:50;;;;;;;10.20;2.77;;;;;;;;;;5048832;28;20400;-58
2023/09/19 09:20:15;;;;;;;11.43;2.70;;;;;;;;;;5047819;28;20912;-57
2023/09/19 09:22:50;;;;;;;11.40;2.50;;;;;;;;;;5048318;28;20413;-57
2023/09/19 09:25:18;;;;;;;10.25;2.47;;;;;;;;;;5049254;28;20519;-58
2023/09/19 09:27:43;;;;;;;12.77;2.70;;;;;;;;;;5048258;28;20400;-58
2023/09/19 09:30:08;;;;;;;10.43;2.70;;;;;;;;;;5046788;28;20768;-58
2023/09/19 09:32:36;;;;;;;12.03;2.33;;;;;;;;;;5049670;28;20410;-58
2023/09/19 09:35:01;;;;;;;10.60;2.63;;;;;;;;;;5048757;28;20408;-58
2023/09/19 09:37:29;;;;;;;10.55;2.80;;;;;;;;;;5047631;28;20405;-58
2023/09/19 09:39:56;;;;;;;9.90;2.30;;;;;;;;;;5048823;28;20425;-57
2023/09/19 09:42:31;;;;;;;9.77;2.73;;;;;;;;;;5048585;28;20484;-57
2023/09/19 09:45:12;;;;;;;8.63;2.22;;;;;;;;;;5049258;28;20394;-57
2023/09/19 09:47:41;;;;;;;10.07;2.30;;;;;;;;;;5045142;28;20405;-57
2023/09/19 09:50:07;;;;;;;11.48;2.38;;;;;;;;;;5047799;28;20413;-58
2023/09/19 09:52:35;;;;;;;10.53;2.20;;;;;;;;;;5049481;28;20409;-57
2023/09/19 09:55:05;;;;;;;10.90;2.45;;;;;;;;;;5046315;28;20428;-58
2023/09/19 09:57:30;;;;;;;10.95;1.90;;;;;;;;;;5046775;28;20405;-58
2023/09/19 09:59:58;;;;;;;10.93;2.30;;;;;;;;;;5048750;28;20935;-57
2023/09/19 10:02:32;;;;;;;10.43;2.20;;;;;;;;;;5048352;28;20389;-58
2023/09/19 10:05:13;;;;;;;9.60;2.00;;;;;;;;;;5051235;28;20688;-58
2023/09/19 10:07:41;;;;;;;7.80;2.20;;;;;;;;;;5048577;28;20444;-57
2023/09/19 10:12:38;;;;;;;9.20;2.13;;;;;;;;;;5047121;28;20413;-58
2023/09/19 10:15:06;;;;;;;7.45;2.10;;;;;;;;;;5047737;28;20420;-58
2023/09/19 10:17:31;;;;;;;11.07;2.20;;;;;;;;;;5046436;28;20498;-58
2023/09/19 10:19:58;;;;;;;10.33;2.20;;;;;;;;;;5046806;28;20504;-58
2023/09/19 10:22:24;;;;;;;9.77;2.80;;;;;;;;;;5046406;28;20389;-57
2023/09/19 10:24:53;;;;;;;11.43;2.60;;;;;;;;;;5047812;28;20523;-58
2023/09/19 10:27:20;;;;;;;11.02;2.72;;;;;;;;;;5048025;28;20432;-58
2023/09/19 10:29:47;;;;;;;12.63;2.63;;;;;;;;;;5046841;28;20413;-57
2023/09/19 10:32:18;;;;;;;11.40;2.60;;;;;;;;;;5046851;28;21449;-58
2023/09/19 10:34:43;;;;;;;11.70;2.30;;;;;;;;;;5047296;28;20507;-57
2023/09/19 10:37:09;;;;;;;10.10;2.40;;;;;;;;;;5047188;28;20481;-57
2023/09/19 10:39:34;;;;;;;10.23;2.50;;;;;;;;;;5044784;28;20504;-58
2023/09/19 10:42:02;;;;;;;12.33;2.40;;;;;;;;;;5047306;28;20915;-58
2023/09/19 10:44:28;;;;;;;10.67;2.47;;;;;;;;;;5047534;28;20396;-57
2023/09/19 10:46:53;;;;;;;9.98;2.40;;;;;;;;;;5044207;28;20397;-58
2023/09/19 10:49:21;;;;;;;10.03;2.13;;;;;;;;;;5047477;28;20492;-57
2023/09/19 10:51:48;;;;;;;10.70;2.25;;;;;;;;;;5048324;28;20418;-57
2023/09/19 10:54:15;;;;;;;9.68;2.03;;;;;;;;;;5045872;28;20531;-57
2023/09/19 10:56:44;;;;;;;10.35;2.47;;;;;;;;;;5045490;28;20409;-57
2023/09/19 10:59:12;;;;;;;10.93;2.58;;;;;;;;;;5045742;28;20413;-58
2023/09/19 11:01:47;;;;;;;13.10;2.70;;;;;;;;;;5047878;28;20914;-57
2023/09/19 11:04:26;;;;;;;11.50;2.50;;;;;;;;;;5045272;28;20421;-57
2023/09/19 11:07:08;;;;;;;12.18;2.30;;;;;;;;;;5046328;28;20503;-57
2023/09/19 11:09:42;;;;;;;12.02;2.00;;;;;;;;;;5047563;28;20531;-58
2023/09/19 11:12:08;;;;;;;7.73;2.20;;;;;;;;;;5047420;28;20405;-58
2023/09/19 11:14:41;;;;;;;9.90;2.10;;;;;;;;;;5044420;28;20432;-57
2023/09/19 11:17:07;;;;;;;11.73;2.60;;;;;;;;;;5046599;28;20987;-58
2023/09/19 11:19:53;;;;;;;10.60;2.53;;;;;;;;;;5047562;28;20488;-57
2023/09/19 11:22:19;;;;;;;9.32;1.90;;;;;;;;;;5046489;28;20900;-57
2023/09/19 11:24:45;;;;;;;8.60;1.97;;;;;;;;;;5044872;28;20420;-57
2023/09/19 11:27:18;;;;;;;8.68;1.88;;;;;;;;;;5047334;28;20535;-58
2023/09/19 11:29:43;;;;;;;9.95;2.05;;;;;;;;;;5047322;28;20393;-57
2023/09/19 11:32:09;;;;;;;8.17;2.37;;;;;;;;;;5045971;28;20412;-58
2023/09/19 11:34:36;;;;;;;8.85;2.15;;;;;;;;;;5044993;28;20404;-58
2023/09/19 11:37:04;;;;;;;10.30;1.95;;;;;;;;;;5046933;28;20401;-58
2023/09/19 11:39:29;;;;;;;8.13;1.92;;;;;;;;;;5047538;28;20392;-58
2023/09/19 11:41:56;;;;;;;8.90;1.80;;;;;;;;;;5044364;28;20410;-57
2023/09/19 11:44:30;;;;;;;10.15;2.30;;;;;;;;;;5046843;28;20699;-57
2023/09/19 11:46:58;;;;;;;8.37;1.87;;;;;;;;;;5047171;28;20484;-57
2023/09/19 11:49:29;;;;;;;7.57;2.03;;;;;;;;;;5044543;28;20817;-58
2023/09/19 11:51:55;;;;;;;9.73;2.08;;;;;;;;;;5044588;28;20539;-57
2023/09/19 11:54:28;;;;;;;8.30;1.80;;;;;;;;;;5046636;28;20484;-57
2023/09/19 11:56:54;;;;;;;8.70;2.10;;;;;;;;;;5046603;28;20722;-57
2023/09/19 11:59:22;;;;;;;10.07;1.90;;;;;;;;;;5044027;28;20475;-57
2023/09/19 12:01:54;;;;;;;8.07;1.88;;;;;;;;;;5046022;28;22347;-57
2023/09/19 12:04:20;;;;;;;7.78;1.63;;;;;;;;;;5045979;28;20416;-58
2023/09/19 12:06:45;;;;;;;7.70;1.57;;;;;;;;;;5044757;28;20406;-57
2023/09/19 12:09:13;;;;;;;11.13;2.20;;;;;;;;;;5043611;28;20935;-58
2023/09/19 12:11:42;;;;;;;7.93;1.80;;;;;;;;;;5045965;28;20401;-57
2023/09/19 12:14:07;;;;;;;9.98;1.67;;;;;;;;;;5043059;28;20950;-57
2023/09/19 12:16:33;;;;;;;6.97;1.50;;;;;;;;;;5049273;28;20393;-57
2023/09/19 12:18:59;;;;;;;9.10;1.73;;;;;;;;;;5049833;28;20901;-57
2023/09/19 12:21:27;;;;;;;9.07;1.52;;;;;;;;;;5046038;28;20393;-57
2023/09/19 12:23:59;;;;;;;8.63;1.83;;;;;;;;;;5048576;28;20528;-57
2023/09/19 12:26:26;;;;;;;7.32;1.70;;;;;;;;;;5049069;28;20386;-57
2023/09/19 12:28:52;;;;;;;8.80;1.57;;;;;;;;;;5049943;28;20416;-58
2023/09/19 12:31:19;;;;;;;7.72;1.60;;;;;;;;;;5028646;28;20406;-57
2023/09/19 12:33:44;;;;;;;9.48;1.60;;;;;;;;;;5029881;28;20411;-58
2023/09/19 12:36:29;;;;;;;8.13;1.80;;;;;;;;;;5029073;28;20798;-57
2023/09/19 12:38:56;;;;;;;7.30;1.40;;;;;;;;;;5028817;28;20418;-57
2023/09/19 12:41:22;;;;;;;7.55;1.77;;;;;;;;;;5029180;28;20395;-57
2023/09/19 12:43:47;;;;;;;6.55;1.30;;;;;;;;;;5048341;28;20421;-57
2023/09/19 12:46:12;;;;;;;6.17;1.60;;;;;;;;;;5047062;28;20425;-57
2023/09/19 12:48:43;;;;;;;5.93;1.33;;;;;;;;;;5049596;28;20470;-57
2023/09/19 12:51:12;;;;;;;7.72;1.70;;;;;;;;;;5048964;28;20915;-57
2023/09/19 12:53:42;;;;;;;8.07;1.30;;;;;;;;;;5048452;28;20401;-58
2023/09/19 12:56:08;;;;;;;6.73;1.23;;;;;;;;;;5049109;28;20397;-58
2023/09/19 12:58:34;;;;;;;6.07;1.50;;;;;;;;;;5049410;28;20455;-57
2023/09/19 13:01:00;;;;;;;8.65;1.42;;;;;;;;;;5048791;28;20481;-57
2023/09/19 13:03:26;;;;;;;7.10;1.27;;;;;;;;;;5049638;28;20474;-58
2023/09/19 13:05:53;;;;;;;4.45;1.20;;;;;;;;;;5052357;28;20795;-57
2023/09/19 13:08:20;;;;;;;6.05;1.40;;;;;;;;;;5052368;28;20451;-57
2023/09/19 13:11:00;;;;;;;6.27;1.10;;;;;;;;;;5053206;28;20479;-57
2023/09/19 13:13:27;;;;;;;8.57;1.60;;;;;;;;;;5051734;28;20401;-57
2023/09/19 13:15:53;;;;;;;7.82;1.17;;;;;;;;;;5052919;28;20394;-57
2023/09/19 13:18:20;;;;;;;8.93;1.47;;;;;;;;;;5052632;28;20488;-57
2023/09/19 13:21:05;;;;;;;6.83;1.50;;;;;;;;;;5051017;28;20409;-57
2023/09/19 13:23:30;;;;;;;5.80;1.10;;;;;;;;;;5051330;28;20469;-57
2023/09/19 13:25:56;;;;;;;4.65;1.15;;;;;;;;;;5048321;28;20954;-57
2023/09/19 13:28:21;;;;;;;6.23;1.20;;;;;;;;;;5049375;28;20420;-58
2023/09/19 13:30:47;;;;;;;6.50;1.23;;;;;;;;;;5047128;28;20453;-57
2023/09/19 13:33:19;;;;;;;5.28;1.40;;;;;;;;;;5032646;28;20526;-58
2023/09/19 13:35:44;;;;;;;7.57;1.20;;;;;;;;;;5023195;28;20437;-57
2023/09/19 13:38:11;;;;;;;6.57;1.10;;;;;;;;;;5022997;28;20887;-58
2023/09/19 13:40:36;;;;;;;4.68;1.17;;;;;;;;;;5030088;28;20410;-57
2023/09/19 13:43:02;;;;;;;5.90;1.30;;;;;;;;;;5030843;28;20457;-58
2023/09/19 13:45:30;;;;;;;6.37;1.30;;;;;;;;;;5031116;28;20745;-57
2023/09/19 13:47:56;;;;;;;6.80;1.20;;;;;;;;;;5030537;28;20405;-57
2023/09/19 13:50:24;;;;;;;6.18;1.05;;;;;;;;;;5030293;28;20449;-58
2023/09/19 13:52:50;;;;;;;4.82;0.85;;;;;;;;;;5030785;28;20461;-57
2023/09/19 13:55:20;;;;;;;5.68;0.95;;;;;;;;;;5028816;28;20457;-57
2023/09/19 13:57:45;;;;;;;6.38;1.20;;;;;;;;;;5025972;28;20413;-57
2023/09/19 14:00:10;;;;;;;4.37;1.10;;;;;;;;;;5022353;28;20793;-58
2023/09/19 14:02:36;;;;;;;5.70;1.07;;;;;;;;;;5024098;28;20417;-57
2023/09/19 14:05:01;;;;;;;4.40;1.07;;;;;;;;;;5030790;28;20407;-58
2023/09/19 14:07:26;;;;;;;3.73;0.80;;;;;;;;;;5032456;28;20890;-57
2023/09/19 14:09:52;;;;;;;4.73;0.90;;;;;;;;;;5030194;28;20762;-58
2023/09/19 14:12:17;;;;;;;4.72;0.90;;;;;;;;;;5029657;28;20403;-57
2023/09/19 14:14:45;;;;;;;5.47;1.20;;;;;;;;;;5031181;28;20418;-58
2023/09/19 14:17:10;;;;;;;4.53;1.08;;;;;;;;;;5029689;28;20401;-57
2023/09/19 14:19:36;;;;;;;3.87;0.97;;;;;;;;;;5023457;28;20469;-57
2023/09/19 14:22:07;;;;;;;5.30;1.10;;;;;;;;;;5025114;28;20492;-58
2023/09/19 14:24:32;;;;;;;4.55;0.90;;;;;;;;;;5028071;28;20985;-58
2023/09/19 14:26:59;;;;;;;4.33;1.00;;;;;;;;;;5028648;28;20409;-58
2023/09/19 14:29:24;;;;;;;5.25;0.90;;;;;;;;;;5030535;28;20414;-58
2023/09/19 14:31:49;;;;;;;6.53;1.13;;;;;;;;;;5031354;28;21115;-57
2023/09/19 14:34:17;;;;;;;3.87;0.73;;;;;;;;;;5029274;28;20416;-58
2023/09/19 14:36:42;;;;;;;7.53;1.20;;;;;;;;;;5038303;28;21046;-58